Flight Track Log - Related Links

Times and Time Zones

All times are in EDT time to prevent confusion due to time zone crossing. See the SWA824 flight status page for this flight to view local times or setup timezone preferences in your user account.

Time Position Orientation Groundspeed Altitude Reporting Facility
EDT Latitude Longitude Course Direction KTS MPH feet Rate Location/Type
Fri 09:33:03 PM 27.9833 -82.5333 360° North 150 173 500  Level Tampa TRACON
Fri 09:33:51 PM 28.0333 -82.5333 360° North 170 196 2,100 2,532 Climbing Tampa TRACON
Fri 09:35:56 PM 28.1475 -82.5725 343° North 257 296 7,800 2,951 Climbing Jacksonville Center
Fri 09:36:56 PM 28.2247 -82.5981 344° North 269 310 11,200 3,200 Climbing Jacksonville Center
Fri 09:37:56 PM 28.3125 -82.6286 343° North 297 342 14,200 3,350 Climbing Jacksonville Center
Fri 09:38:56 PM 28.4042 -82.6542 346° North 322 371 17,900 3,100 Climbing Jacksonville Center
Fri 09:39:56 PM 28.4983 -82.6872 343° North 339 390 20,400 2,400 Climbing Jacksonville Center
Fri 09:40:56 PM 28.6006 -82.7200 344° North 359 413 22,700 2,300 Climbing Jacksonville Center
Fri 09:41:56 PM 28.7069 -82.7531 345° North 378 435 25,000 2,150 Climbing Jacksonville Center
Fri 09:42:56 PM 28.8156 -82.7906 343° North 397 457 27,000 2,000 Climbing Jacksonville Center
Fri 09:43:56 PM 28.9261 -82.8333 341° North 402 463 29,000 2,000 Climbing Jacksonville Center
Fri 09:44:56 PM 29.0369 -82.8806 340° North 412 474 31,000 1,950 Climbing Jacksonville Center
Fri 09:45:56 PM 29.1475 -82.9258 340° North 417 480 32,900 1,800 Climbing Jacksonville Center
Fri 09:46:56 PM 29.2561 -82.9736 339° North 417 480 34,600 1,550 Climbing Jacksonville Center
Fri 09:47:56 PM 29.3686 -83.0211 340° North 417 480 36,000 650 Climbing Jacksonville Center
Fri 09:48:56 PM 29.4919 -83.0764 339° North 417 480 35,900  Descending Jacksonville Center
Fri 09:49:56 PM 29.6025 -83.1242 339° North 429 494 36,000 50 Climbing Jacksonville Center
Fri 09:50:56 PM 29.7150 -83.1725 340° North 422 486 36,000  Level Jacksonville Center
Fri 09:51:56 PM 29.8256 -83.2181 340° North 429 494 36,000  Level Jacksonville Center
Fri 09:52:56 PM 29.9361 -83.2642 340° North 429 494 36,000 -50 Level Jacksonville Center
Fri 09:53:56 PM 30.0508 -83.3006 345° North 429 494 35,900  Descending Jacksonville Center
Fri 09:54:56 PM 30.1675 -83.3347 346° North 429 494 36,000 50 Climbing Jacksonville Center
Fri 09:55:56 PM 30.2844 -83.3714 345° North 424 488 36,000  Level Jacksonville Center
Fri 09:56:56 PM 30.4011 -83.4056 346° North 430 495 36,000  Level Jacksonville Center
Fri 09:57:56 PM 30.5158 -83.4400 345° North 430 495 36,000  Level Jacksonville Center
Fri 09:58:56 PM 30.6328 -83.4769 345° North 430 495 36,000  Level Jacksonville Center
Fri 09:59:56 PM 30.7536 -83.5139 345° North 435 501 36,000  Level Jacksonville Center
Fri 10:00:56 PM 30.8578 -83.5483 344° North 435 501 36,000  Level Jacksonville Center
Fri 10:01:56 PM 30.9725 -83.5856 344° North 435 501 36,000  Level Jacksonville Center
Fri 10:03:37 PM 31.1867 -83.6531 345° North 439 505 36,000  Level Atlanta Center
Fri 10:04:37 PM 31.3058 -83.6889 346° North 439 505 36,000  Level Atlanta Center
Fri 10:05:37 PM 31.4247 -83.7272 345° North 439 505 36,000  Level Atlanta Center
Fri 10:06:37 PM 31.5439 -83.7658 345° North 439 505 36,000  Level Atlanta Center
Fri 10:07:37 PM 31.6525 -83.7950 347° North 439 505 36,000  Level Atlanta Center
Fri 10:08:37 PM 31.7797 -83.8386 344° North 444 511 36,000  Level Atlanta Center
Fri 10:09:37 PM 31.9008 -83.8775 345° North 451 519 36,000  Level Atlanta Center
Fri 10:10:37 PM 32.0219 -83.9164 345° North 451 519 36,000  Level Atlanta Center
Fri 10:11:37 PM 32.1453 -83.9556 345° North 451 519 36,000  Level Atlanta Center
Fri 10:12:37 PM 32.2664 -83.9947 345° North 451 519 36,000  Level Atlanta Center
Fri 10:13:37 PM 32.3894 -84.0339 345° North 451 519 36,000  Level Atlanta Center
Fri 10:14:37 PM 32.5106 -84.0708 346° North 451 519 36,000  Level Atlanta Center
Fri 10:15:37 PM 32.6358 -84.1128 344° North 456 525 36,000  Level Atlanta Center
Fri 10:16:37 PM 32.7611 -84.1525 345° North 456 525 36,000  Level Atlanta Center
Fri 10:17:37 PM 32.8842 -84.1922 345° North 456 525 36,000  Level Atlanta Center
Fri 10:18:37 PM 33.0197 -84.2394 344° North 456 525 36,000  Level Atlanta Center
Fri 10:19:37 PM 33.1428 -84.2794 345° North 456 525 36,000  Level Atlanta Center
Fri 10:20:37 PM 33.2658 -84.3169 346° North 456 525 36,000  Level Atlanta Center
Fri 10:21:37 PM 33.3911 -84.3597 344° North 456 525 36,000  Level Atlanta Center
Fri 10:22:37 PM 33.5142 -84.4000 345° North 456 525 36,000  Level Atlanta Center
Fri 10:23:37 PM 33.6350 -84.4406 344° North 456 525 36,000  Level Atlanta Center
Fri 10:24:37 PM 33.7622 -84.4711 349° North 451 519 36,000  Level Atlanta Center
Fri 10:25:37 PM 33.8872 -84.4992 349° North 457 526 36,000  Level Atlanta Center
Fri 10:26:37 PM 34.0167 -84.5300 349° North 457 526 36,000  Level Atlanta Center
Fri 10:27:37 PM 34.1481 -84.5633 348° North 464 534 36,000  Level Atlanta Center
Fri 10:28:37 PM 34.2753 -84.5919 349° North 474 545 36,000  Level Atlanta Center
Fri 10:29:37 PM 34.4022 -84.6253 348° North 468 539 36,000  Level Atlanta Center
Fri 10:30:37 PM 34.5275 -84.6564 348° North 462 532 36,000  Level Atlanta Center
Fri 10:31:37 PM 34.6419 -84.6850 348° North 467 537 36,000  Level Atlanta Center
Fri 10:32:37 PM 34.7775 -84.7192 348° North 461 531 36,000  Level Atlanta Center
Fri 10:33:37 PM 34.9047 -84.7506 349° North 461 531 36,000  Level Atlanta Center
Fri 10:34:37 PM 35.0317 -84.7819 349° North 461 531 36,000  Level Atlanta Center
Fri 10:35:37 PM 35.1608 -84.8136 349° North 466 536 36,000  Level Atlanta Center
Fri 10:36:37 PM 35.2900 -84.8453 349° North 471 542 36,000  Level Atlanta Center
Fri 10:37:37 PM 35.4172 -84.8772 348° North 471 542 36,000  Level Atlanta Center
Fri 10:38:37 PM 35.5461 -84.9092 349° North 471 542 36,000  Level Atlanta Center
Fri 10:39:37 PM 35.6733 -84.9436 348° North 471 542 36,000  Level Atlanta Center
Fri 10:42:01 PM 35.9697 -85.0172 349° North 475 547 36,000  Level Indianapolis Center
Fri 10:43:02 PM 36.0989 -85.0506 348° North 470 541 36,000  Level Indianapolis Center
Fri 10:44:03 PM 36.2283 -85.0836 348° North 472 543 36,000  Level Indianapolis Center
Fri 10:45:04 PM 36.3728 -85.1200 349° North 473 544 36,000  Level Indianapolis Center
Fri 10:46:05 PM 36.4869 -85.1494 348° North 475 547 36,000  Level Indianapolis Center
Fri 10:47:06 PM 36.6419 -85.1897 348° North 474 545 36,000  Level Indianapolis Center
Fri 10:48:07 PM 36.7717 -85.2233 348° North 475 547 36,000  Level Indianapolis Center
Fri 10:49:08 PM 36.9028 -85.2564 349° North 478 550 36,000  Level Indianapolis Center
Fri 10:50:09 PM 37.0347 -85.2928 348° North 477 549 36,000  Level Indianapolis Center
Fri 10:51:10 PM 37.1658 -85.3269 348° North 478 550 36,000  Level Indianapolis Center
Fri 10:52:11 PM 37.2958 -85.3611 348° North 476 548 36,000  Level Indianapolis Center
Fri 10:53:13 PM 37.4264 -85.3958 348° North 477 549 36,000  Level Indianapolis Center
Fri 10:54:14 PM 37.5564 -85.4308 348° North 475 547 36,000  Level Indianapolis Center
Fri 10:55:15 PM 37.6853 -85.4661 348° North 472 543 36,000  Level Indianapolis Center
Fri 10:56:16 PM 37.8153 -85.5017 348° North 475 547 36,000  Level Indianapolis Center
Fri 10:57:17 PM 37.9450 -85.5347 349° North 480 552 36,000  Level Indianapolis Center
Fri 10:58:18 PM 38.0742 -85.5692 348° North 475 547 36,000  Level Indianapolis Center
Fri 10:59:19 PM 38.2044 -85.5969 350° North 474 545 36,000  Level Indianapolis Center
Fri 11:00:20 PM 38.3344 -85.6206 352° North 470 541 36,000  Level Indianapolis Center
Fri 11:01:21 PM 38.4647 -85.6464 351° North 473 544 36,000  Level Indianapolis Center
Fri 11:02:22 PM 38.6222 -85.6772 351° North 476 548 36,000  Level Indianapolis Center
Fri 11:03:24 PM 38.7364 -85.6997 351° North 475 547 36,000  Level Indianapolis Center
Fri 11:04:24 PM 38.8672 -85.7256 351° North 476 548 36,000  Level Indianapolis Center
Fri 11:05:25 PM 38.9975 -85.7517 351° North 477 549 36,000  Level Indianapolis Center
Fri 11:06:26 PM 39.1539 -85.7817 352° North 475 547 36,000  Level Indianapolis Center
Fri 11:07:27 PM 39.2847 -85.8069 351° North 477 549 36,000  Level Indianapolis Center
Fri 11:08:28 PM 39.4147 -85.8339 351° North 476 548 36,000  Level Indianapolis Center
Fri 11:09:29 PM 39.5442 -85.8594 351° North 474 545 36,000  Level Indianapolis Center
Fri 11:10:30 PM 39.6728 -85.8839 352° North 474 545 36,000  Level Indianapolis Center
Fri 11:11:31 PM 39.8017 -85.9100 351° North 475 547 36,000  Level Indianapolis Center
Fri 11:12:32 PM 39.9292 -85.9358 351° North 472 543 36,000  Level Indianapolis Center
Fri 11:13:33 PM 40.0681 -86.0211 335° Northwest 470 541 36,000  Level Indianapolis Center
Fri 11:14:34 PM 40.1783 -86.1056 330° Northwest 467 537 36,000  Level Chicago Center
Fri 11:15:35 PM 40.2900 -86.1919 329° Northwest 469 540 36,000 -344 Level Chicago Center
Fri 11:16:36 PM 40.4011 -86.2778 330° Northwest 467 537 35,300 -836 Descending Chicago Center
Fri 11:17:37 PM 40.5114 -86.3622 330° Northwest 461 531 34,300 -984 Descending Chicago Center
Fri 11:18:38 PM 40.6194 -86.4483 329° Northwest 457 526 33,300 -1,902 Descending Chicago Center
Fri 11:20:40 PM 40.8344 -86.6158 329° Northwest 449 517 28,500 -2,689 Descending Indianapolis Center
Fri 11:21:41 PM 40.9411 -86.6989 330° Northwest 447 514 25,100 -3,295 Descending Indianapolis Center
Fri 11:22:42 PM 41.0456 -86.7850 328° Northwest 446 513 21,800 -3,443 Descending Indianapolis Center
Fri 11:23:43 PM 41.1683 -86.8783 330° Northwest 429 494 18,100 -2,927 Descending Indianapolis Center
Fri 11:24:45 PM 41.2628 -86.9533 329° Northwest 417 480 15,800 -2,634 Descending Chicago Center
Fri 11:25:46 PM 41.3536 -87.0286 328° Northwest 394 453 12,700 -2,656 Descending Chicago Center
Fri 11:26:47 PM 41.4200 -87.1292 311° West 372 428 10,400 -1,694 Descending Chicago Center
Fri 11:27:11 PM 41.4333 -87.1833 288° West 322 371 10,300 -250 Descending Chicago TRACON

Login

Don't have an account? Register now (free) for customized features, flight alerts, and more!